sensor_id;sensor_type;location;lat;lon;timestamp;temperature;humidity
66568;DHT22;53422;49.296;6.900;2023-02-28T00:00:16;0.10;86.10
66568;DHT22;53422;49.296;6.900;2023-02-28T00:02:44;0.10;86.40
66568;DHT22;53422;49.296;6.900;2023-02-28T00:05:11;0.00;87.00
66568;DHT22;53422;49.296;6.900;2023-02-28T00:07:38;0.00;85.20
66568;DHT22;53422;49.296;6.900;2023-02-28T00:10:05;0.10;87.50
66568;DHT22;53422;49.296;6.900;2023-02-28T00:12:36;0.00;86.80
66568;DHT22;53422;49.296;6.900;2023-02-28T00:15:05;0.00;86.50
66568;DHT22;53422;49.296;6.900;2023-02-28T00:17:31;0.00;85.70
66568;DHT22;53422;49.296;6.900;2023-02-28T00:19:57;0.00;89.00
66568;DHT22;53422;49.296;6.900;2023-02-28T00:22:30;-0.10;86.00
66568;DHT22;53422;49.296;6.900;2023-02-28T00:24:55;-0.10;87.60
66568;DHT22;53422;49.296;6.900;2023-02-28T00:27:21;-0.20;87.90
66568;DHT22;53422;49.296;6.900;2023-02-28T00:29:47;-0.10;89.90
66568;DHT22;53422;49.296;6.900;2023-02-28T00:32:13;-0.20;90.00
66568;DHT22;53422;49.296;6.900;2023-02-28T00:34:39;-0.20;88.80
66568;DHT22;53422;49.296;6.900;2023-02-28T00:37:09;-0.10;92.30
66568;DHT22;53422;49.296;6.900;2023-02-28T00:39:37;-0.20;90.70
66568;DHT22;53422;49.296;6.900;2023-02-28T00:42:03;-0.10;91.50
66568;DHT22;53422;49.296;6.900;2023-02-28T00:44:30;-0.10;90.70
66568;DHT22;53422;49.296;6.900;2023-02-28T00:46:56;-0.10;90.90
66568;DHT22;53422;49.296;6.900;2023-02-28T00:49:23;-0.20;90.00
66568;DHT22;53422;49.296;6.900;2023-02-28T00:51:49;-0.30;91.40
66568;DHT22;53422;49.296;6.900;2023-02-28T00:54:15;-0.20;91.30
66568;DHT22;53422;49.296;6.900;2023-02-28T00:56:40;-0.30;91.00
66568;DHT22;53422;49.296;6.900;2023-02-28T00:59:06;-0.30;90.10
66568;DHT22;53422;49.296;6.900;2023-02-28T01:01:32;-0.30;91.40
66568;DHT22;53422;49.296;6.900;2023-02-28T01:03:58;-0.40;90.80
66568;DHT22;53422;49.296;6.900;2023-02-28T01:06:23;-0.40;91.00
66568;DHT22;53422;49.296;6.900;2023-02-28T01:08:49;-0.50;91.80
66568;DHT22;53422;49.296;6.900;2023-02-28T01:11:16;-0.40;91.00
66568;DHT22;53422;49.296;6.900;2023-02-28T01:13:44;-0.50;92.20
66568;DHT22;53422;49.296;6.900;2023-02-28T01:16:10;-0.50;92.20
66568;DHT22;53422;49.296;6.900;2023-02-28T01:18:36;-0.50;92.60
66568;DHT22;53422;49.296;6.900;2023-02-28T01:21:06;-0.50;92.20
66568;DHT22;53422;49.296;6.900;2023-02-28T01:23:33;-0.50;92.20
66568;DHT22;53422;49.296;6.900;2023-02-28T01:26:04;-0.40;91.20
66568;DHT22;53422;49.296;6.900;2023-02-28T01:28:30;-0.50;92.50
66568;DHT22;53422;49.296;6.900;2023-02-28T01:30:56;-0.50;93.10
66568;DHT22;53422;49.296;6.900;2023-02-28T01:33:22;-0.50;92.70
66568;DHT22;53422;49.296;6.900;2023-02-28T01:35:47;-0.50;93.30
66568;DHT22;53422;49.296;6.900;2023-02-28T01:38:13;-0.50;92.70
66568;DHT22;53422;49.296;6.900;2023-02-28T01:40:39;-0.50;93.10
66568;DHT22;53422;49.296;6.900;2023-02-28T01:43:24;-0.50;94.60
66568;DHT22;53422;49.296;6.900;2023-02-28T01:45:55;-0.40;94.60
66568;DHT22;53422;49.296;6.900;2023-02-28T01:48:26;-0.50;93.50
66568;DHT22;53422;49.296;6.900;2023-02-28T01:50:54;-0.50;94.00
66568;DHT22;53422;49.296;6.900;2023-02-28T01:53:26;-0.60;95.00
66568;DHT22;53422;49.296;6.900;2023-02-28T01:55:56;-0.50;94.30
66568;DHT22;53422;49.296;6.900;2023-02-28T01:58:22;-0.50;94.70
66568;DHT22;53422;49.296;6.900;2023-02-28T02:00:48;-0.60;94.00
66568;DHT22;53422;49.296;6.900;2023-02-28T02:03:16;-0.60;94.50
66568;DHT22;53422;49.296;6.900;2023-02-28T02:05:45;-0.60;95.00
66568;DHT22;53422;49.296;6.900;2023-02-28T02:08:19;-0.60;95.20
66568;DHT22;53422;49.296;6.900;2023-02-28T02:10:57;-0.60;95.10
66568;DHT22;53422;49.296;6.900;2023-02-28T02:18:59;-0.60;94.90
66568;DHT22;53422;49.296;6.900;2023-02-28T02:34:28;-0.50;95.30
66568;DHT22;53422;49.296;6.900;2023-02-28T02:42:12;-0.60;98.20
66568;DHT22;53422;49.296;6.900;2023-02-28T02:44:43;-0.70;97.00
66568;DHT22;53422;49.296;6.900;2023-02-28T02:47:15;-0.70;98.60
66568;DHT22;53422;49.296;6.900;2023-02-28T02:49:50;-0.70;97.50
66568;DHT22;53422;49.296;6.900;2023-02-28T02:52:20;-0.70;98.70
66568;DHT22;53422;49.296;6.900;2023-02-28T02:54:48;-0.70;99.60
66568;DHT22;53422;49.296;6.900;2023-02-28T02:57:23;-0.70;98.80
66568;DHT22;53422;49.296;6.900;2023-02-28T02:59:51;-0.80;99.70
66568;DHT22;53422;49.296;6.900;2023-02-28T03:02:19;-0.80;98.80
66568;DHT22;53422;49.296;6.900;2023-02-28T03:04:53;-0.70;99.90
66568;DHT22;53422;49.296;6.900;2023-02-28T03:07:20;-0.70;98.80
66568;DHT22;53422;49.296;6.900;2023-02-28T03:09:54;-0.70;99.60
66568;DHT22;53422;49.296;6.900;2023-02-28T03:12:20;-0.70;97.60
66568;DHT22;53422;49.296;6.900;2023-02-28T03:14:55;-0.70;98.80
66568;DHT22;53422;49.296;6.900;2023-02-28T03:25:32;-0.80;98.60
66568;DHT22;53422;49.296;6.900;2023-02-28T03:31:08;-0.80;99.90
66568;DHT22;53422;49.296;6.900;2023-02-28T03:34:21;-0.80;99.10
66568;DHT22;53422;49.296;6.900;2023-02-28T03:36:26;-0.90;99.90
66568;DHT22;53422;49.296;6.900;2023-02-28T03:38:59;-0.80;99.90
66568;DHT22;53422;49.296;6.900;2023-02-28T03:41:45;-0.90;99.90
66568;DHT22;53422;49.296;6.900;2023-02-28T03:44:20;-0.90;99.90
66568;DHT22;53422;49.296;6.900;2023-02-28T03:46:55;-0.90;99.90
66568;DHT22;53422;49.296;6.900;2023-02-28T03:49:27;-1.00;99.90
66568;DHT22;53422;49.296;6.900;2023-02-28T03:51:58;-0.80;99.90
66568;DHT22;53422;49.296;6.900;2023-02-28T03:54:35;-0.90;99.60
66568;DHT22;53422;49.296;6.900;2023-02-28T03:59:54;-1.00;99.90
66568;DHT22;53422;49.296;6.900;2023-02-28T04:02:21;-1.00;99.90
66568;DHT22;53422;49.296;6.900;2023-02-28T04:04:47;-1.00;99.90
66568;DHT22;53422;49.296;6.900;2023-02-28T04:07:14;-1.10;99.90
66568;DHT22;53422;49.296;6.900;2023-02-28T04:09:40;-1.10;99.90
66568;DHT22;53422;49.296;6.900;2023-02-28T04:12:06;-1.00;99.90
66568;DHT22;53422;49.296;6.900;2023-02-28T04:14:31;-1.10;99.90
66568;DHT22;53422;49.296;6.900;2023-02-28T04:16:57;-1.00;99.90
66568;DHT22;53422;49.296;6.900;2023-02-28T04:19:23;-1.00;99.90
66568;DHT22;53422;49.296;6.900;2023-02-28T04:21:51;-1.10;99.90
66568;DHT22;53422;49.296;6.900;2023-02-28T04:24:27;-1.20;99.90
66568;DHT22;53422;49.296;6.900;2023-02-28T04:26:55;-1.10;99.90
66568;DHT22;53422;49.296;6.900;2023-02-28T04:29:31;-1.20;99.90
66568;DHT22;53422;49.296;6.900;2023-02-28T04:31:58;-1.10;99.90
66568;DHT22;53422;49.296;6.900;2023-02-28T04:34:26;-1.10;99.90
66568;DHT22;53422;49.296;6.900;2023-02-28T04:36:52;-1.10;99.90
66568;DHT22;53422;49.296;6.900;2023-02-28T04:39:20;-1.10;99.90
66568;DHT22;53422;49.296;6.900;2023-02-28T04:41:46;-1.20;99.90
66568;DHT22;53422;49.296;6.900;2023-02-28T04:44:13;-1.20;99.90
66568;DHT22;53422;49.296;6.900;2023-02-28T04:46:38;-1.30;99.90
66568;DHT22;53422;49.296;6.900;2023-02-28T04:49:04;-1.20;99.90
66568;DHT22;53422;49.296;6.900;2023-02-28T04:51:29;-1.20;99.90
66568;DHT22;53422;49.296;6.900;2023-02-28T04:53:56;-1.20;99.90
66568;DHT22;53422;49.296;6.900;2023-02-28T04:56:22;-1.10;99.90
66568;DHT22;53422;49.296;6.900;2023-02-28T04:58:48;-1.20;99.90
66568;DHT22;53422;49.296;6.900;2023-02-28T05:01:18;-1.10;99.90
66568;DHT22;53422;49.296;6.900;2023-02-28T05:03:44;-1.10;99.90
66568;DHT22;53422;49.296;6.900;2023-02-28T05:06:11;-1.20;99.90
66568;DHT22;53422;49.296;6.900;2023-02-28T05:08:37;-1.20;99.90
66568;DHT22;53422;49.296;6.900;2023-02-28T05:11:05;-1.20;99.90
66568;DHT22;53422;49.296;6.900;2023-02-28T05:13:31;-1.20;99.90
66568;DHT22;53422;49.296;6.900;2023-02-28T05:15:57;-1.20;99.90
66568;DHT22;53422;49.296;6.900;2023-02-28T05:18:22;-1.20;99.90
66568;DHT22;53422;49.296;6.900;2023-02-28T05:20:48;-1.20;99.90
66568;DHT22;53422;49.296;6.900;2023-02-28T05:23:22;-1.20;99.90
66568;DHT22;53422;49.296;6.900;2023-02-28T05:25:48;-1.20;99.90
66568;DHT22;53422;49.296;6.900;2023-02-28T05:28:13;-1.20;99.90
66568;DHT22;53422;49.296;6.900;2023-02-28T05:30:40;-1.20;99.90
66568;DHT22;53422;49.296;6.900;2023-02-28T05:33:05;-1.30;99.90
66568;DHT22;53422;49.296;6.900;2023-02-28T05:35:31;-1.30;99.90
66568;DHT22;53422;49.296;6.900;2023-02-28T05:37:57;-1.30;99.90
66568;DHT22;53422;49.296;6.900;2023-02-28T05:40:22;-1.20;99.90
66568;DHT22;53422;49.296;6.900;2023-02-28T05:42:50;-1.20;99.90
66568;DHT22;53422;49.296;6.900;2023-02-28T05:45:16;-1.30;99.90
66568;DHT22;53422;49.296;6.900;2023-02-28T05:47:42;-1.30;99.90
66568;DHT22;53422;49.296;6.900;2023-02-28T05:50:08;-1.30;99.90
66568;DHT22;53422;49.296;6.900;2023-02-28T05:52:36;-1.40;99.90
66568;DHT22;53422;49.296;6.900;2023-02-28T05:55:03;-1.30;99.90
66568;DHT22;53422;49.296;6.900;2023-02-28T05:57:29;-1.30;99.90
66568;DHT22;53422;49.296;6.900;2023-02-28T05:59:55;-1.30;99.90
66568;DHT22;53422;49.296;6.900;2023-02-28T06:02:21;-1.30;99.90
66568;DHT22;53422;49.296;6.900;2023-02-28T06:04:46;-1.30;99.90
66568;DHT22;53422;49.296;6.900;2023-02-28T06:07:12;-1.30;99.90
66568;DHT22;53422;49.296;6.900;2023-02-28T06:09:38;-1.30;99.90
66568;DHT22;53422;49.296;6.900;2023-02-28T06:12:06;-1.40;99.90
66568;DHT22;53422;49.296;6.900;2023-02-28T06:14:33;-1.40;99.90
66568;DHT22;53422;49.296;6.900;2023-02-28T06:17:00;-1.40;99.90
66568;DHT22;53422;49.296;6.900;2023-02-28T06:19:25;-1.40;99.90
66568;DHT22;53422;49.296;6.900;2023-02-28T06:21:52;-1.40;99.90
66568;DHT22;53422;49.296;6.900;2023-02-28T06:24:20;-1.40;99.90
66568;DHT22;53422;49.296;6.900;2023-02-28T06:26:46;-1.40;99.90
66568;DHT22;53422;49.296;6.900;2023-02-28T06:29:12;-1.40;99.90
66568;DHT22;53422;49.296;6.900;2023-02-28T06:31:38;-1.40;99.90
66568;DHT22;53422;49.296;6.900;2023-02-28T06:34:04;-1.40;99.90
66568;DHT22;53422;49.296;6.900;2023-02-28T06:36:30;-1.40;99.90
66568;DHT22;53422;49.296;6.900;2023-02-28T06:38:56;-1.40;99.90
66568;DHT22;53422;49.296;6.900;2023-02-28T06:41:26;-1.40;99.90
66568;DHT22;53422;49.296;6.900;2023-02-28T06:43:52;-1.40;99.90
66568;DHT22;53422;49.296;6.900;2023-02-28T06:46:18;-1.40;99.90
66568;DHT22;53422;49.296;6.900;2023-02-28T06:48:44;-1.40;99.90
66568;DHT22;53422;49.296;6.900;2023-02-28T06:51:13;-1.50;99.90
66568;DHT22;53422;49.296;6.900;2023-02-28T06:53:40;-1.50;99.90
66568;DHT22;53422;49.296;6.900;2023-02-28T06:56:08;-1.40;99.90
66568;DHT22;53422;49.296;6.900;2023-02-28T06:58:34;-1.40;99.90
66568;DHT22;53422;49.296;6.900;2023-02-28T07:01:00;-1.40;99.90
66568;DHT22;53422;49.296;6.900;2023-02-28T07:03:26;-1.40;99.90
66568;DHT22;53422;49.296;6.900;2023-02-28T07:05:51;-1.40;99.90
66568;DHT22;53422;49.296;6.900;2023-02-28T07:08:17;-1.40;99.90
66568;DHT22;53422;49.296;6.900;2023-02-28T07:10:43;-1.30;99.90
66568;DHT22;53422;49.296;6.900;2023-02-28T07:13:09;-1.40;99.90
66568;DHT22;53422;49.296;6.900;2023-02-28T07:15:36;-1.40;99.90
66568;DHT22;53422;49.296;6.900;2023-02-28T07:18:02;-1.30;99.90
66568;DHT22;53422;49.296;6.900;2023-02-28T07:20:29;-1.30;99.90
66568;DHT22;53422;49.296;6.900;2023-02-28T07:22:55;-1.30;99.90
66568;DHT22;53422;49.296;6.900;2023-02-28T07:25:29;-1.30;99.90
66568;DHT22;53422;49.296;6.900;2023-02-28T07:27:55;-1.30;99.90
66568;DHT22;53422;49.296;6.900;2023-02-28T07:30:21;-1.30;99.90
66568;DHT22;53422;49.296;6.900;2023-02-28T07:32:47;-1.30;99.90
66568;DHT22;53422;49.296;6.900;2023-02-28T07:35:13;-1.30;99.90
66568;DHT22;53422;49.296;6.900;2023-02-28T07:37:41;-1.20;99.90
66568;DHT22;53422;49.296;6.900;2023-02-28T07:40:09;-1.30;99.90
66568;DHT22;53422;49.296;6.900;2023-02-28T07:42:35;-1.20;99.90
66568;DHT22;53422;49.296;6.900;2023-02-28T07:45:02;-1.20;99.90
66568;DHT22;53422;49.296;6.900;2023-02-28T07:47:29;-1.20;99.90
66568;DHT22;53422;49.296;6.900;2023-02-28T07:49:56;-1.10;99.90
66568;DHT22;53422;49.296;6.900;2023-02-28T07:52:22;-1.10;99.90
66568;DHT22;53422;49.296;6.900;2023-02-28T07:54:50;-1.10;99.90
66568;DHT22;53422;49.296;6.900;2023-02-28T07:57:16;-1.10;99.90
66568;DHT22;53422;49.296;6.900;2023-02-28T07:59:42;-1.10;99.90
66568;DHT22;53422;49.296;6.900;2023-02-28T08:02:18;-1.00;99.90
66568;DHT22;53422;49.296;6.900;2023-02-28T08:04:44;-1.00;99.90
66568;DHT22;53422;49.296;6.900;2023-02-28T08:07:12;-1.00;99.90
66568;DHT22;53422;49.296;6.900;2023-02-28T08:09:39;-0.90;99.90
66568;DHT22;53422;49.296;6.900;2023-02-28T08:12:06;-0.90;99.90
66568;DHT22;53422;49.296;6.900;2023-02-28T08:14:33;-0.90;99.90
66568;DHT22;53422;49.296;6.900;2023-02-28T08:16:58;-0.80;99.90
66568;DHT22;53422;49.296;6.900;2023-02-28T08:19:24;-0.80;99.90
66568;DHT22;53422;49.296;6.900;2023-02-28T08:21:50;-0.80;99.90
66568;DHT22;53422;49.296;6.900;2023-02-28T08:24:16;-0.70;99.90
66568;DHT22;53422;49.296;6.900;2023-02-28T08:26:41;-0.60;99.90
66568;DHT22;53422;49.296;6.900;2023-02-28T08:29:07;-0.60;99.90
66568;DHT22;53422;49.296;6.900;2023-02-28T08:31:32;-0.50;99.90
66568;DHT22;53422;49.296;6.900;2023-02-28T08:33:58;-0.50;99.90
66568;DHT22;53422;49.296;6.900;2023-02-28T08:36:25;-0.40;99.90
66568;DHT22;53422;49.296;6.900;2023-02-28T08:38:53;-0.40;99.90
66568;DHT22;53422;49.296;6.900;2023-02-28T08:41:19;-0.30;99.90
66568;DHT22;53422;49.296;6.900;2023-02-28T08:43:45;-0.30;99.90
66568;DHT22;53422;49.296;6.900;2023-02-28T08:46:12;-0.20;99.90
66568;DHT22;53422;49.296;6.900;2023-02-28T08:48:39;-0.20;99.90
66568;DHT22;53422;49.296;6.900;2023-02-28T08:51:06;-0.10;99.90
66568;DHT22;53422;49.296;6.900;2023-02-28T08:53:32;-0.10;99.90
66568;DHT22;53422;49.296;6.900;2023-02-28T08:55:59;0.00;99.90
66568;DHT22;53422;49.296;6.900;2023-02-28T08:58:25;0.00;99.90
66568;DHT22;53422;49.296;6.900;2023-02-28T09:00:51;0.10;99.90
66568;DHT22;53422;49.296;6.900;2023-02-28T09:03:17;0.10;99.90
66568;DHT22;53422;49.296;6.900;2023-02-28T09:05:55;0.20;99.90
66568;DHT22;53422;49.296;6.900;2023-02-28T09:08:22;0.20;99.90
66568;DHT22;53422;49.296;6.900;2023-02-28T09:10:49;0.20;99.90
66568;DHT22;53422;49.296;6.900;2023-02-28T09:13:15;0.30;99.90
66568;DHT22;53422;49.296;6.900;2023-02-28T09:15:40;0.30;99.90
66568;DHT22;53422;49.296;6.900;2023-02-28T09:18:06;0.30;99.90
66568;DHT22;53422;49.296;6.900;2023-02-28T09:20:32;0.30;99.90
66568;DHT22;53422;49.296;6.900;2023-02-28T09:22:57;0.40;99.90
66568;DHT22;53422;49.296;6.900;2023-02-28T09:25:23;0.40;99.90
66568;DHT22;53422;49.296;6.900;2023-02-28T09:27:48;0.50;99.90
66568;DHT22;53422;49.296;6.900;2023-02-28T09:30:14;0.50;99.90
66568;DHT22;53422;49.296;6.900;2023-02-28T09:32:40;0.60;99.90
66568;DHT22;53422;49.296;6.900;2023-02-28T09:35:06;0.60;99.90
66568;DHT22;53422;49.296;6.900;2023-02-28T09:37:32;0.60;99.90
66568;DHT22;53422;49.296;6.900;2023-02-28T09:39:57;0.60;99.90
66568;DHT22;53422;49.296;6.900;2023-02-28T09:42:32;0.70;99.90
66568;DHT22;53422;49.296;6.900;2023-02-28T09:45:00;0.70;99.90
66568;DHT22;53422;49.296;6.900;2023-02-28T09:47:30;0.80;99.90
66568;DHT22;53422;49.296;6.900;2023-02-28T09:50:06;0.80;99.90
66568;DHT22;53422;49.296;6.900;2023-02-28T09:52:37;0.80;99.90
66568;DHT22;53422;49.296;6.900;2023-02-28T09:57:44;0.90;99.90
66568;DHT22;53422;49.296;6.900;2023-02-28T10:00:15;0.90;99.90
66568;DHT22;53422;49.296;6.900;2023-02-28T10:05:43;1.00;99.90
66568;DHT22;53422;49.296;6.900;2023-02-28T10:08:28;1.00;99.90
66568;DHT22;53422;49.296;6.900;2023-02-28T10:10:55;1.10;99.90
66568;DHT22;53422;49.296;6.900;2023-02-28T10:13:53;1.10;99.90
66568;DHT22;53422;49.296;6.900;2023-02-28T10:21:39;1.10;99.90
66568;DHT22;53422;49.296;6.900;2023-02-28T10:24:35;1.20;99.90
66568;DHT22;53422;49.296;6.900;2023-02-28T10:27:19;1.20;96.70
66568;DHT22;53422;49.296;6.900;2023-02-28T10:29:51;1.20;95.60
66568;DHT22;53422;49.296;6.900;2023-02-28T10:32:20;1.20;96.60
66568;DHT22;53422;49.296;6.900;2023-02-28T10:35:10;1.30;94.40
66568;DHT22;53422;49.296;6.900;2023-02-28T10:37:46;1.30;96.60
66568;DHT22;53422;49.296;6.900;2023-02-28T10:45:20;1.40;95.40
66568;DHT22;53422;49.296;6.900;2023-02-28T10:56:03;1.40;94.20
66568;DHT22;53422;49.296;6.900;2023-02-28T11:01:44;1.50;92.20
66568;DHT22;53422;49.296;6.900;2023-02-28T11:07:21;1.50;92.80
66568;DHT22;53422;49.296;6.900;2023-02-28T11:09:52;1.60;93.20
66568;DHT22;53422;49.296;6.900;2023-02-28T11:12:23;1.60;93.50
66568;DHT22;53422;49.296;6.900;2023-02-28T11:14:57;1.70;91.30
66568;DHT22;53422;49.296;6.900;2023-02-28T11:17:26;1.60;90.80
66568;DHT22;53422;49.296;6.900;2023-02-28T11:20:18;1.70;91.80
66568;DHT22;53422;49.296;6.900;2023-02-28T11:22:44;1.80;91.90
66568;DHT22;53422;49.296;6.900;2023-02-28T11:25:30;1.80;91.40
66568;DHT22;53422;49.296;6.900;2023-02-28T11:27:58;1.80;91.30
66568;DHT22;53422;49.296;6.900;2023-02-28T11:30:28;1.80;90.50
66568;DHT22;53422;49.296;6.900;2023-02-28T11:32:54;1.80;90.10
66568;DHT22;53422;49.296;6.900;2023-02-28T11:37:55;1.90;89.40
66568;DHT22;53422;49.296;6.900;2023-02-28T11:43:49;1.90;85.60
66568;DHT22;53422;49.296;6.900;2023-02-28T11:46:09;1.90;89.60
66568;DHT22;53422;49.296;6.900;2023-02-28T11:48:51;2.00;88.00
66568;DHT22;53422;49.296;6.900;2023-02-28T11:56:36;2.00;88.30
66568;DHT22;53422;49.296;6.900;2023-02-28T12:05:36;2.00;84.30
66568;DHT22;53422;49.296;6.900;2023-02-28T12:11:19;2.00;84.70
66568;DHT22;53422;49.296;6.900;2023-02-28T12:14:06;2.00;81.90
66568;DHT22;53422;49.296;6.900;2023-02-28T12:25:33;2.10;82.20
66568;DHT22;53422;49.296;6.900;2023-02-28T12:28:03;2.10;81.30
66568;DHT22;53422;49.296;6.900;2023-02-28T12:30:32;2.10;81.90
66568;DHT22;53422;49.296;6.900;2023-02-28T12:33:11;2.20;79.90
66568;DHT22;53422;49.296;6.900;2023-02-28T12:35:45;2.10;83.20
66568;DHT22;53422;49.296;6.900;2023-02-28T12:38:21;2.10;83.10
66568;DHT22;53422;49.296;6.900;2023-02-28T12:40:59;2.20;80.10
66568;DHT22;53422;49.296;6.900;2023-02-28T12:43:36;2.20;82.60
66568;DHT22;53422;49.296;6.900;2023-02-28T12:49:08;2.20;82.00
66568;DHT22;53422;49.296;6.900;2023-02-28T12:51:35;2.20;83.50
66568;DHT22;53422;49.296;6.900;2023-02-28T12:54:08;2.20;82.20
66568;DHT22;53422;49.296;6.900;2023-02-28T12:56:44;2.20;85.60
66568;DHT22;53422;49.296;6.900;2023-02-28T13:02:16;2.30;81.70
66568;DHT22;53422;49.296;6.900;2023-02-28T13:10:47;2.40;82.60
66568;DHT22;53422;49.296;6.900;2023-02-28T13:13:22;2.40;78.80
66568;DHT22;53422;49.296;6.900;2023-02-28T13:16:08;2.40;80.50
66568;DHT22;53422;49.296;6.900;2023-02-28T13:18:39;2.40;79.90
66568;DHT22;53422;49.296;6.900;2023-02-28T13:21:27;2.40;80.40
66568;DHT22;53422;49.296;6.900;2023-02-28T13:34:34;2.40;75.50
66568;DHT22;53422;49.296;6.900;2023-02-28T13:39:56;2.50;77.40
66568;DHT22;53422;49.296;6.900;2023-02-28T13:50:24;2.60;77.20
66568;DHT22;53422;49.296;6.900;2023-02-28T13:55:29;2.80;74.10
66568;DHT22;53422;49.296;6.900;2023-02-28T14:06:30;3.00;74.60
66568;DHT22;53422;49.296;6.900;2023-02-28T14:09:06;3.10;75.30
66568;DHT22;53422;49.296;6.900;2023-02-28T14:11:42;3.00;75.50
66568;DHT22;53422;49.296;6.900;2023-02-28T14:14:10;3.10;72.90
66568;DHT22;53422;49.296;6.900;2023-02-28T14:16:56;3.10;74.60
66568;DHT22;53422;49.296;6.900;2023-02-28T14:19:28;3.10;70.20
66568;DHT22;53422;49.296;6.900;2023-02-28T14:33:27;3.20;70.50
66568;DHT22;53422;49.296;6.900;2023-02-28T14:38:47;3.20;70.50
66568;DHT22;53422;49.296;6.900;2023-02-28T14:43:55;3.30;70.40
66568;DHT22;53422;49.296;6.900;2023-02-28T14:46:41;3.30;69.20
66568;DHT22;53422;49.296;6.900;2023-02-28T14:49:30;3.30;68.60
66568;DHT22;53422;49.296;6.900;2023-02-28T14:52:23;3.30;71.30
66568;DHT22;53422;49.296;6.900;2023-02-28T14:57:31;3.30;68.60
66568;DHT22;53422;49.296;6.900;2023-02-28T15:03:30;3.30;68.00
66568;DHT22;53422;49.296;6.900;2023-02-28T15:05:58;3.30;68.10
66568;DHT22;53422;49.296;6.900;2023-02-28T15:08:25;3.30;70.60
66568;DHT22;53422;49.296;6.900;2023-02-28T15:11:01;3.40;67.70
66568;DHT22;53422;49.296;6.900;2023-02-28T15:13:43;3.40;68.60
66568;DHT22;53422;49.296;6.900;2023-02-28T15:21:06;3.30;70.10
66568;DHT22;53422;49.296;6.900;2023-02-28T15:23:34;3.30;68.80
66568;DHT22;53422;49.296;6.900;2023-02-28T15:26:02;3.30;68.20
66568;DHT22;53422;49.296;6.900;2023-02-28T15:28:28;3.30;67.70
66568;DHT22;53422;49.296;6.900;2023-02-28T15:30:58;3.30;69.10
66568;DHT22;53422;49.296;6.900;2023-02-28T15:33:27;3.30;67.70
66568;DHT22;53422;49.296;6.900;2023-02-28T15:36:11;3.30;68.10
66568;DHT22;53422;49.296;6.900;2023-02-28T15:38:38;3.20;66.70
66568;DHT22;53422;49.296;6.900;2023-02-28T15:41:03;3.20;70.70
66568;DHT22;53422;49.296;6.900;2023-02-28T15:43:37;3.20;68.70
66568;DHT22;53422;49.296;6.900;2023-02-28T15:46:10;3.20;69.10
66568;DHT22;53422;49.296;6.900;2023-02-28T15:48:54;3.20;69.40
66568;DHT22;53422;49.296;6.900;2023-02-28T15:51:24;3.20;67.70
66568;DHT22;53422;49.296;6.900;2023-02-28T15:54:08;3.10;68.60
66568;DHT22;53422;49.296;6.900;2023-02-28T15:56:42;3.10;70.70
66568;DHT22;53422;49.296;6.900;2023-02-28T15:59:15;3.10;70.60
66568;DHT22;53422;49.296;6.900;2023-02-28T16:01:41;3.10;68.10
66568;DHT22;53422;49.296;6.900;2023-02-28T16:04:15;3.10;70.20
66568;DHT22;53422;49.296;6.900;2023-02-28T16:07:06;3.10;68.40
66568;DHT22;53422;49.296;6.900;2023-02-28T16:09:31;3.00;68.50
66568;DHT22;53422;49.296;6.900;2023-02-28T16:12:00;3.00;70.20
66568;DHT22;53422;49.296;6.900;2023-02-28T16:14:31;3.00;68.60
66568;DHT22;53422;49.296;6.900;2023-02-28T16:17:04;3.00;69.70
66568;DHT22;53422;49.296;6.900;2023-02-28T16:19:31;2.90;69.70
66568;DHT22;53422;49.296;6.900;2023-02-28T16:21:57;2.90;68.50
66568;DHT22;53422;49.296;6.900;2023-02-28T16:24:23;2.90;68.60
66568;DHT22;53422;49.296;6.900;2023-02-28T16:26:50;2.90;68.80
66568;DHT22;53422;49.296;6.900;2023-02-28T16:29:33;2.90;69.50
66568;DHT22;53422;49.296;6.900;2023-02-28T16:32:00;2.90;69.80
66568;DHT22;53422;49.296;6.900;2023-02-28T16:34:26;2.80;68.40
66568;DHT22;53422;49.296;6.900;2023-02-28T16:36:53;2.80;70.30
66568;DHT22;53422;49.296;6.900;2023-02-28T16:39:19;2.80;70.00
66568;DHT22;53422;49.296;6.900;2023-02-28T16:41:48;2.80;71.30
66568;DHT22;53422;49.296;6.900;2023-02-28T16:44:30;2.80;70.00
66568;DHT22;53422;49.296;6.900;2023-02-28T16:46:56;2.70;70.00
66568;DHT22;53422;49.296;6.900;2023-02-28T16:49:22;2.70;70.00
66568;DHT22;53422;49.296;6.900;2023-02-28T16:51:48;2.60;71.40
66568;DHT22;53422;49.296;6.900;2023-02-28T16:54:13;2.60;72.30
66568;DHT22;53422;49.296;6.900;2023-02-28T16:56:44;2.60;72.00
66568;DHT22;53422;49.296;6.900;2023-02-28T16:59:11;2.60;70.40
66568;DHT22;53422;49.296;6.900;2023-02-28T17:01:38;2.50;73.40
66568;DHT22;53422;49.296;6.900;2023-02-28T17:04:04;2.50;71.70
66568;DHT22;53422;49.296;6.900;2023-02-28T17:06:30;2.50;72.40
66568;DHT22;53422;49.296;6.900;2023-02-28T17:08:57;2.50;75.10
66568;DHT22;53422;49.296;6.900;2023-02-28T17:11:25;2.50;71.90
66568;DHT22;53422;49.296;6.900;2023-02-28T17:13:51;2.40;73.20
66568;DHT22;53422;49.296;6.900;2023-02-28T17:16:25;2.40;73.20
66568;DHT22;53422;49.296;6.900;2023-02-28T17:18:53;2.40;72.70
66568;DHT22;53422;49.296;6.900;2023-02-28T17:21:19;2.30;73.90
66568;DHT22;53422;49.296;6.900;2023-02-28T17:23:45;2.30;73.50
66568;DHT22;53422;49.296;6.900;2023-02-28T17:26:15;2.20;74.70
66568;DHT22;53422;49.296;6.900;2023-02-28T17:28:43;2.20;74.10
66568;DHT22;53422;49.296;6.900;2023-02-28T17:31:09;2.20;74.80
66568;DHT22;53422;49.296;6.900;2023-02-28T17:33:35;2.20;77.10
66568;DHT22;53422;49.296;6.900;2023-02-28T17:36:00;2.10;77.00
66568;DHT22;53422;49.296;6.900;2023-02-28T17:38:27;2.10;75.10
66568;DHT22;53422;49.296;6.900;2023-02-28T17:40:53;2.10;77.70
66568;DHT22;53422;49.296;6.900;2023-02-28T17:43:26;2.10;77.30
66568;DHT22;53422;49.296;6.900;2023-02-28T17:45:52;2.00;77.10
66568;DHT22;53422;49.296;6.900;2023-02-28T17:48:18;2.00;77.20
66568;DHT22;53422;49.296;6.900;2023-02-28T17:50:43;2.00;81.90
66568;DHT22;53422;49.296;6.900;2023-02-28T17:53:09;2.00;78.40
66568;DHT22;53422;49.296;6.900;2023-02-28T17:55:35;1.90;79.30
66568;DHT22;53422;49.296;6.900;2023-02-28T17:58:02;1.90;78.80
66568;DHT22;53422;49.296;6.900;2023-02-28T18:00:28;1.90;77.90
66568;DHT22;53422;49.296;6.900;2023-02-28T18:02:54;1.80;77.60
66568;DHT22;53422;49.296;6.900;2023-02-28T18:05:20;1.80;77.20
66568;DHT22;53422;49.296;6.900;2023-02-28T18:07:46;1.80;79.10
66568;DHT22;53422;49.296;6.900;2023-02-28T18:10:20;1.80;78.90
66568;DHT22;53422;49.296;6.900;2023-02-28T18:12:50;1.80;79.30
66568;DHT22;53422;49.296;6.900;2023-02-28T18:15:17;1.80;78.80
66568;DHT22;53422;49.296;6.900;2023-02-28T18:17:45;1.80;78.90
66568;DHT22;53422;49.296;6.900;2023-02-28T18:20:11;1.70;79.20
66568;DHT22;53422;49.296;6.900;2023-02-28T18:22:39;1.70;78.90
66568;DHT22;53422;49.296;6.900;2023-02-28T18:25:06;1.70;80.40
66568;DHT22;53422;49.296;6.900;2023-02-28T18:27:36;1.70;78.60
66568;DHT22;53422;49.296;6.900;2023-02-28T18:30:03;1.70;79.10
66568;DHT22;53422;49.296;6.900;2023-02-28T18:32:29;1.60;79.50
66568;DHT22;53422;49.296;6.900;2023-02-28T18:34:56;1.60;81.70
66568;DHT22;53422;49.296;6.900;2023-02-28T18:37:21;1.60;82.00
66568;DHT22;53422;49.296;6.900;2023-02-28T18:39:47;1.60;81.10